createdAt,value
2018-11-28T00:00:40.431Z,24.37
2018-11-28T00:03:09.461Z,25.43
2018-11-28T00:05:39.306Z,24.97
2018-11-28T00:08:24.079Z,20.63
2018-11-28T00:10:54.081Z,26.37
2018-11-28T00:13:23.359Z,21.73
2018-11-28T00:15:52.820Z,24.17
2018-11-28T00:18:22.422Z,23.63
2018-11-28T00:20:51.715Z,25.00
2018-11-28T00:23:21.330Z,22.50
2018-11-28T00:25:50.618Z,21.77
2018-11-28T00:28:20.468Z,22.30
2018-11-28T00:30:50.453Z,21.47
2018-11-28T00:33:20.079Z,21.00
2018-11-28T00:35:49.359Z,21.60
2018-11-28T00:38:18.656Z,23.40
2018-11-28T00:40:47.915Z,18.60
2018-11-28T00:43:17.239Z,22.33
2018-11-28T00:45:47.459Z,24.27
2018-11-28T00:48:16.738Z,16.93
2018-11-28T00:50:47.290Z,20.10
2018-11-28T00:53:16.582Z,22.53
2018-11-28T00:55:48.477Z,17.23
2018-11-28T00:58:15.340Z,21.30
2018-11-28T01:00:44.664Z,19.13
2018-11-28T01:03:13.955Z,20.83
2018-11-28T01:05:43.289Z,19.03
2018-11-28T01:08:12.991Z,21.97
2018-11-28T01:10:42.265Z,18.50
2018-11-28T01:13:11.805Z,20.83
2018-11-28T01:15:41.079Z,18.80
2018-11-28T01:18:10.576Z,20.63
2018-11-28T01:20:40.262Z,21.40
2018-11-28T01:23:09.548Z,16.40
2018-11-28T01:25:38.852Z,21.37
2018-11-28T01:28:08.822Z,18.00
2018-11-28T01:30:38.162Z,18.80
2018-11-28T01:33:07.452Z,17.03
2018-11-28T01:35:37.302Z,17.20
2018-11-28T01:38:07.386Z,19.07
2018-11-28T01:40:36.700Z,18.87
2018-11-28T01:43:07.242Z,17.17
2018-11-28T01:45:36.271Z,18.47
2018-11-28T01:48:05.734Z,16.17
2018-11-28T01:50:34.967Z,18.77
2018-11-28T01:53:04.295Z,20.43
2018-11-28T01:55:33.590Z,17.97
2018-11-28T01:58:03.774Z,18.70
2018-11-28T02:00:33.109Z,18.50
2018-11-28T02:03:03.283Z,17.43
2018-11-28T02:05:32.830Z,18.55
2018-11-28T02:08:02.316Z,18.03
2018-11-28T02:10:32.120Z,17.50
2018-11-28T02:13:01.389Z,16.40
2018-11-28T02:15:30.683Z,16.67
2018-11-28T02:17:59.972Z,17.27
2018-11-28T02:20:29.627Z,18.30
2018-11-28T02:22:58.891Z,20.83
2018-11-28T02:25:28.182Z,16.80
2018-11-28T02:27:57.443Z,20.97
2018-11-28T02:30:26.759Z,18.13
2018-11-28T02:32:56.205Z,14.50
2018-11-28T02:35:25.671Z,16.87
2018-11-28T02:37:55.073Z,15.90
2018-11-28T02:40:24.447Z,16.90
2018-11-28T02:42:53.746Z,13.73
2018-11-28T02:45:23.499Z,12.80
2018-11-28T02:47:53.241Z,13.35
2018-11-28T02:50:22.525Z,14.97
2018-11-28T02:52:51.825Z,16.43
2018-11-28T02:55:21.700Z,17.12
2018-11-28T02:57:51.297Z,13.72
2018-11-28T03:00:25.525Z,14.75
2018-11-28T03:02:55.071Z,16.02
2018-11-28T03:05:24.976Z,16.90
2018-11-28T03:07:54.538Z,17.57
2018-11-28T03:10:24.013Z,16.77
2018-11-28T03:12:53.589Z,17.30
2018-11-28T03:15:54.053Z,14.50
2018-11-28T03:18:24.170Z,15.23
2018-11-28T03:20:53.716Z,15.10
2018-11-28T03:23:23.602Z,14.18
2018-11-28T03:25:53.805Z,15.00
2018-11-28T03:28:23.369Z,15.55
2018-11-28T03:30:52.940Z,16.17
2018-11-28T03:33:23.302Z,13.38
2018-11-28T03:35:53.194Z,18.12
2018-11-28T03:38:22.754Z,17.40
2018-11-28T03:40:52.333Z,16.73
2018-11-28T03:43:22.950Z,16.60
2018-11-28T03:45:52.495Z,16.10
2018-11-28T03:48:22.662Z,16.77
2018-11-28T03:50:52.228Z,11.88
2018-11-28T03:53:21.794Z,15.35
2018-11-28T03:55:51.380Z,15.20
2018-11-28T03:58:20.654Z,20.80
2018-11-28T04:00:50.241Z,24.80
2018-11-28T04:03:19.810Z,17.42
2018-11-28T04:05:49.356Z,14.45
2018-11-28T04:08:18.712Z,15.80
2018-11-28T04:10:50.081Z,10.80
2018-11-28T04:13:19.634Z,15.55
2018-11-28T04:15:49.163Z,14.45
2018-11-28T04:18:19.445Z,16.48
2018-11-28T04:20:49.025Z,20.52
2018-11-28T04:23:18.811Z,16.07
2018-11-28T04:25:48.545Z,19.55
2018-11-28T04:28:18.080Z,16.48
2018-11-28T04:30:47.638Z,22.05
2018-11-28T04:33:17.158Z,14.35
2018-11-28T04:35:46.694Z,22.73
2018-11-28T04:38:16.214Z,13.38
2018-11-28T04:40:45.932Z,8.05
2018-11-28T04:43:15.531Z,8.60
2018-11-28T04:45:45.778Z,6.80
2018-11-28T04:48:15.326Z,8.53
2018-11-28T04:50:44.875Z,8.65
2018-11-28T04:53:14.300Z,10.15
2018-11-28T04:55:44.780Z,14.65
2018-11-28T04:58:15.439Z,11.38
2018-11-28T05:00:45.711Z,8.88
2018-11-28T05:03:15.253Z,13.40
2018-11-28T05:05:44.818Z,17.45
2018-11-28T05:08:14.407Z,24.40
2018-11-28T05:10:43.988Z,21.97
2018-11-28T05:13:13.554Z,48.23
2018-11-28T05:15:43.121Z,21.42
2018-11-28T05:18:12.735Z,18.55
2018-11-28T05:20:42.305Z,23.10
2018-11-28T05:23:12.346Z,31.02
2018-11-28T05:25:42.222Z,18.95
2018-11-28T05:28:11.756Z,39.60
2018-11-28T05:30:41.338Z,24.02
2018-11-28T05:33:11.829Z,75.15
2018-11-28T05:35:41.410Z,80.20
2018-11-28T05:38:13.312Z,69.90
2018-11-28T05:40:43.759Z,40.70
2018-11-28T05:43:13.756Z,52.35
2018-11-28T05:45:43.632Z,37.13
2018-11-28T05:48:13.200Z,37.75
2018-11-28T05:50:44.183Z,21.20
2018-11-28T05:53:13.772Z,30.12
2018-11-28T05:55:43.836Z,29.48
2018-11-28T05:58:13.402Z,30.80
2018-11-28T06:00:42.840Z,28.63
2018-11-28T06:03:13.863Z,29.10
2018-11-28T06:05:48.761Z,30.50
2018-11-28T06:08:19.290Z,36.90
2018-11-28T06:10:48.821Z,28.83
2018-11-28T06:13:18.117Z,32.37
2018-11-28T06:15:47.420Z,26.03
2018-11-28T06:18:16.991Z,30.40
2018-11-28T06:20:46.615Z,33.90
2018-11-28T06:23:15.895Z,33.10
2018-11-28T06:25:45.535Z,31.40
2018-11-28T06:28:14.836Z,36.83
2018-11-28T06:30:44.420Z,25.55
2018-11-28T06:33:13.735Z,31.67
2018-11-28T06:35:43.058Z,34.67
2018-11-28T06:38:12.332Z,28.63
2018-11-28T06:40:46.200Z,32.50
2018-11-28T06:43:15.776Z,29.32
2018-11-28T06:45:45.347Z,36.73
2018-11-28T06:48:14.631Z,31.70
2018-11-28T06:50:43.902Z,33.80
2018-11-28T06:53:13.346Z,31.40
2018-11-28T06:55:42.699Z,31.43
2018-11-28T06:58:12.332Z,25.83
2018-11-28T07:00:41.904Z,31.90
2018-11-28T07:03:11.199Z,32.30
2018-11-28T07:05:41.063Z,29.07
2018-11-28T07:08:10.676Z,30.82
2018-11-28T07:10:40.664Z,27.50
2018-11-28T07:13:10.687Z,29.30
2018-11-28T07:15:40.071Z,30.60
2018-11-28T07:18:20.485Z,30.73
2018-11-28T07:20:49.909Z,32.20
2018-11-28T07:23:19.098Z,31.73
2018-11-28T07:25:48.346Z,34.80
2018-11-28T07:28:17.898Z,40.33
2018-11-28T07:30:47.543Z,31.63
2018-11-28T07:33:16.835Z,35.60
2018-11-28T07:35:46.148Z,24.97
2018-11-28T07:38:16.173Z,30.27
2018-11-28T07:40:45.773Z,36.93
2018-11-28T07:43:15.245Z,41.17
2018-11-28T07:45:47.288Z,35.83
2018-11-28T07:48:16.853Z,34.10
2018-11-28T07:50:47.443Z,33.23
2018-11-28T07:53:15.494Z,27.63
2018-11-28T07:55:45.378Z,37.13
2018-11-28T07:58:14.705Z,35.40
2018-11-28T08:00:44.291Z,32.70
2018-11-28T08:03:13.609Z,31.07
2018-11-28T08:05:42.899Z,33.60
2018-11-28T08:08:12.229Z,31.67
2018-11-28T08:10:41.877Z,34.37
2018-11-28T08:13:11.368Z,35.33
2018-11-28T08:15:40.709Z,36.67
2018-11-28T08:18:10.059Z,31.20
2018-11-28T08:20:39.387Z,34.37
2018-11-28T08:23:08.650Z,35.30
2018-11-28T08:25:38.162Z,34.97
2018-11-28T08:28:07.627Z,42.37
2018-11-28T08:30:37.499Z,38.30
2018-11-28T08:33:06.792Z,39.27
2018-11-28T08:35:36.085Z,37.23
2018-11-28T08:38:06.271Z,31.77
2018-11-28T08:40:35.575Z,38.70
2018-11-28T08:43:04.973Z,39.80
2018-11-28T08:45:34.703Z,35.37
2018-11-28T08:48:04.417Z,35.43
2018-11-28T08:50:35.137Z,35.87
2018-11-28T08:53:05.362Z,41.60
2018-11-28T08:55:34.710Z,37.90
2018-11-28T08:58:04.028Z,38.83
2018-11-28T09:00:33.331Z,35.33
2018-11-28T09:03:02.631Z,32.47
2018-11-28T09:05:31.978Z,32.20
2018-11-28T09:08:01.570Z,35.33
2018-11-28T09:10:30.875Z,30.93
2018-11-28T09:13:04.239Z,28.77
2018-11-28T09:15:31.318Z,34.70
2018-11-28T09:17:59.707Z,30.33
2018-11-28T09:20:29.608Z,35.85
2018-11-28T09:22:59.189Z,29.60
2018-11-28T09:25:28.841Z,32.20
2018-11-28T09:27:58.912Z,35.37
2018-11-28T09:30:28.678Z,34.90
2018-11-28T09:32:58.257Z,30.60
2018-11-28T09:35:27.539Z,33.93
2018-11-28T09:37:56.820Z,28.33
2018-11-28T09:40:27.191Z,31.97
2018-11-28T09:42:58.268Z,35.10
2018-11-28T09:45:27.754Z,28.70
2018-11-28T09:47:57.413Z,29.10
2018-11-28T09:50:27.059Z,33.53
2018-11-28T09:52:56.904Z,31.80
2018-11-28T09:55:28.450Z,25.83
2018-11-28T09:57:58.371Z,29.47
2018-11-28T10:00:28.675Z,35.13
2018-11-28T10:03:00.567Z,32.57
2018-11-28T10:05:31.162Z,34.07
2018-11-28T10:08:00.778Z,33.80
2018-11-28T10:10:30.625Z,31.57
2018-11-28T10:12:59.923Z,29.37
2018-11-28T10:15:35.248Z,32.10
2018-11-28T10:17:59.412Z,32.10
2018-11-28T10:20:28.684Z,30.43
2018-11-28T10:22:58.040Z,27.70
2018-11-28T10:25:27.643Z,29.03
2018-11-28T10:28:02.231Z,31.20
2018-11-28T10:30:33.091Z,33.50
2018-11-28T10:33:02.381Z,36.43
2018-11-28T10:35:31.667Z,33.57
2018-11-28T10:38:01.205Z,32.87
2018-11-28T10:40:30.874Z,31.67
2018-11-28T10:43:00.951Z,33.37
2018-11-28T10:45:31.135Z,39.77
2018-11-28T10:48:00.916Z,31.37
2018-11-28T10:50:30.467Z,30.43
2018-11-28T10:52:59.743Z,32.83
2018-11-28T10:55:29.231Z,33.57
2018-11-28T10:57:58.877Z,33.07
2018-11-28T11:00:36.106Z,33.07
2018-11-28T11:03:12.075Z,36.17
2018-11-28T11:05:46.766Z,31.17
2018-11-28T11:08:21.298Z,33.47
2018-11-28T11:10:56.155Z,29.00
2018-11-28T11:13:30.762Z,30.13
2018-11-28T11:16:00.642Z,34.27
2018-11-28T11:18:30.124Z,32.93
2018-11-28T11:20:59.423Z,36.47
2018-11-28T11:23:28.817Z,29.13
2018-11-28T11:25:58.382Z,31.87
2018-11-28T11:28:27.680Z,31.23
2018-11-28T11:30:57.993Z,34.03
2018-11-28T11:33:27.319Z,32.97
2018-11-28T11:35:56.862Z,32.63
2018-11-28T11:38:26.776Z,30.87
2018-11-28T11:40:56.391Z,34.43
2018-11-28T11:43:25.716Z,32.93
2018-11-28T11:45:55.263Z,34.70
2018-11-28T11:48:24.584Z,34.30
2018-11-28T11:50:54.249Z,32.10
2018-11-28T11:53:23.828Z,38.10
2018-11-28T11:55:53.694Z,36.07
2018-11-28T11:58:23.006Z,31.97
2018-11-28T12:00:52.292Z,36.43
2018-11-28T12:03:21.652Z,33.53
2018-11-28T12:05:54.383Z,38.67
2018-11-28T12:08:24.830Z,33.60
2018-11-28T12:10:53.920Z,39.23
2018-11-28T12:13:23.296Z,36.23
2018-11-28T12:15:53.165Z,36.23
2018-11-28T12:18:22.283Z,37.90
2018-11-28T12:20:55.269Z,36.07
2018-11-28T12:23:24.673Z,41.43
2018-11-28T12:25:54.545Z,37.60
2018-11-28T12:28:24.523Z,37.93
2018-11-28T12:30:53.895Z,40.07
2018-11-28T12:33:23.175Z,41.20
2018-11-28T12:35:52.990Z,43.73
2018-11-28T12:38:22.045Z,30.60
2018-11-28T12:40:51.930Z,43.70
2018-11-28T12:43:21.340Z,31.03
2018-11-28T12:45:51.324Z,37.30
2018-11-28T12:48:21.101Z,32.20
2018-11-28T12:50:50.769Z,36.47
2018-11-28T12:53:20.717Z,34.70
2018-11-28T12:55:50.029Z,36.77
2018-11-28T12:58:20.460Z,37.70
2018-11-28T13:00:50.736Z,35.47
2018-11-28T13:03:20.309Z,40.03
2018-11-28T13:05:49.629Z,33.80
2018-11-28T13:08:18.717Z,36.80
2018-11-28T13:10:48.704Z,35.00
2018-11-28T13:13:18.150Z,31.50
2018-11-28T13:15:47.514Z,43.07
2018-11-28T13:18:16.852Z,39.77
2018-11-28T13:20:46.496Z,37.73
2018-11-28T13:23:15.787Z,37.67
2018-11-28T13:25:45.108Z,35.63
2018-11-28T13:28:14.608Z,37.30
2018-11-28T13:30:43.949Z,33.20
2018-11-28T13:33:13.246Z,37.00
2018-11-28T13:35:42.787Z,34.93
2018-11-28T13:38:12.976Z,36.17
2018-11-28T13:40:43.297Z,32.90
2018-11-28T13:43:12.649Z,33.87
2018-11-28T13:45:44.690Z,29.77
2018-11-28T13:48:14.908Z,34.33
2018-11-28T13:50:44.215Z,31.27
2018-11-28T13:53:15.286Z,35.23
2018-11-28T13:56:30.033Z,31.70
2018-11-28T13:58:17.903Z,32.53
2018-11-28T14:00:47.209Z,35.17
2018-11-28T14:03:16.659Z,33.93
2018-11-28T14:05:46.146Z,26.00
2018-11-28T14:08:15.829Z,30.97
2018-11-28T14:10:45.183Z,31.37
2018-11-28T14:13:15.416Z,31.57
2018-11-28T14:15:45.123Z,30.20
2018-11-28T14:18:16.295Z,33.90
2018-11-28T14:20:46.221Z,40.53
2018-11-28T14:23:15.515Z,31.67
2018-11-28T14:25:45.326Z,33.27
2018-11-28T14:28:14.799Z,35.90
2018-11-28T14:30:45.680Z,36.73
2018-11-28T14:33:15.823Z,36.77
2018-11-28T14:35:45.133Z,35.40
2018-11-28T14:38:14.570Z,37.87
2018-11-28T14:40:44.297Z,36.67
2018-11-28T14:43:13.613Z,33.37
2018-11-28T14:45:43.192Z,30.03
2018-11-28T14:48:12.724Z,37.47
2018-11-28T14:50:42.030Z,36.60
2018-11-28T14:53:11.397Z,30.93
2018-11-28T14:55:41.618Z,36.63
2018-11-28T14:58:12.827Z,33.73
2018-11-28T15:00:42.385Z,33.60
2018-11-28T15:03:14.281Z,35.60
2018-11-28T15:05:56.205Z,34.33
2018-11-28T15:08:28.653Z,31.00
2018-11-28T15:11:06.472Z,29.70
2018-11-28T15:13:35.783Z,31.57
2018-11-28T15:16:05.501Z,40.93
2018-11-28T15:18:34.853Z,32.50
2018-11-28T15:21:04.374Z,37.37
2018-11-28T15:23:33.785Z,41.90
2018-11-28T15:26:03.091Z,42.10
2018-11-28T15:28:32.894Z,29.13
2018-11-28T15:31:02.295Z,42.63
2018-11-28T15:33:31.604Z,39.20
2018-11-28T15:36:00.909Z,34.40
2018-11-28T15:38:30.205Z,34.13
2018-11-28T15:40:59.697Z,36.83
2018-11-28T15:43:28.990Z,36.90
2018-11-28T15:45:58.594Z,42.10
2018-11-28T15:48:27.907Z,33.30
2018-11-28T15:50:57.205Z,32.70
2018-11-28T15:53:26.588Z,36.47
2018-11-28T15:55:56.195Z,42.20
2018-11-28T15:58:25.476Z,34.87
2018-11-28T16:00:54.811Z,43.07
2018-11-28T16:03:24.104Z,38.13
2018-11-28T16:05:53.519Z,32.60
2018-11-28T16:08:22.857Z,37.47
2018-11-28T16:10:52.446Z,35.30
2018-11-28T16:13:21.748Z,41.80
2018-11-28T16:15:54.677Z,39.80
2018-11-28T16:18:24.759Z,41.90
2018-11-28T16:20:54.361Z,43.60
2018-11-28T16:23:24.062Z,36.67
2018-11-28T16:25:53.485Z,40.50
2018-11-28T16:28:22.794Z,37.43
2018-11-28T16:30:53.527Z,44.60
2018-11-28T16:33:23.082Z,42.83
2018-11-28T16:35:52.363Z,39.90
2018-11-28T16:38:21.703Z,35.83
2018-11-28T16:40:51.125Z,35.97
2018-11-28T16:43:20.452Z,44.97
2018-11-28T16:45:49.919Z,43.87
2018-11-28T16:48:19.735Z,40.78
2018-11-28T16:50:49.320Z,41.90
2018-11-28T16:53:18.651Z,38.73
2018-11-28T16:55:48.004Z,44.10
2018-11-28T16:58:17.026Z,40.07
2018-11-28T17:00:46.871Z,40.10
2018-11-28T17:03:16.426Z,38.73
2018-11-28T17:05:46.055Z,42.53
2018-11-28T17:08:15.652Z,41.80
2018-11-28T17:10:44.970Z,41.90
2018-11-28T17:13:14.280Z,40.23
2018-11-28T17:15:44.215Z,44.17
2018-11-28T17:18:14.116Z,38.70
2018-11-28T17:20:44.012Z,38.00
2018-11-28T17:23:13.349Z,42.33
2018-11-28T17:25:42.882Z,41.20
2018-11-28T17:28:12.176Z,41.10
2018-11-28T17:30:41.486Z,35.53
2018-11-28T17:33:11.093Z,35.83
2018-11-28T17:35:40.688Z,41.15
2018-11-28T17:38:10.012Z,45.83
2018-11-28T17:40:39.602Z,40.60
2018-11-28T17:43:09.201Z,44.35
2018-11-28T17:45:38.847Z,36.68
2018-11-28T17:48:08.734Z,40.43
2018-11-28T17:50:39.242Z,38.83
2018-11-28T17:53:12.604Z,41.80
2018-11-28T17:56:00.604Z,44.20
2018-11-28T17:58:29.904Z,38.13
2018-11-28T18:00:59.871Z,43.83
2018-11-28T18:03:29.166Z,40.77
2018-11-28T18:05:59.046Z,40.35
2018-11-28T18:08:29.280Z,42.15
2018-11-28T18:11:09.902Z,39.70
2018-11-28T18:13:39.694Z,40.45
2018-11-28T18:16:09.811Z,40.17
2018-11-28T18:18:39.444Z,40.05
2018-11-28T18:21:08.722Z,37.07
2018-11-28T18:23:39.241Z,36.42
2018-11-28T18:26:10.945Z,40.63
2018-11-28T18:28:40.811Z,38.90
2018-11-28T18:31:10.114Z,41.43
2018-11-28T18:33:39.487Z,34.67
2018-11-28T18:36:09.349Z,36.37
2018-11-28T18:38:38.625Z,45.30
2018-11-28T18:41:08.143Z,42.00
2018-11-28T18:43:52.098Z,42.57
2018-11-28T18:46:22.317Z,38.70
2018-11-28T18:48:51.881Z,39.50
2018-11-28T18:51:21.279Z,35.83
2018-11-28T18:53:51.514Z,37.85
2018-11-28T18:56:21.271Z,35.77
2018-11-28T18:58:50.595Z,46.10
2018-11-28T19:01:19.891Z,43.30
2018-11-28T19:03:49.235Z,41.80
2018-11-28T19:06:18.549Z,44.30
2018-11-28T19:08:47.851Z,39.77
2018-11-28T19:11:17.361Z,37.13
2018-11-28T19:13:46.972Z,34.27
2018-11-28T19:16:16.295Z,37.07
2018-11-28T19:18:45.856Z,40.37
2018-11-28T19:21:15.477Z,37.53
2018-11-28T19:23:46.593Z,28.80
2018-11-28T19:26:16.229Z,37.17
2018-11-28T19:28:45.525Z,37.77
2018-11-28T19:31:15.338Z,34.03
2018-11-28T19:33:46.835Z,28.05
2018-11-28T19:36:16.544Z,37.05
2018-11-28T19:38:46.206Z,30.30
2018-11-28T19:41:24.747Z,39.17
2018-11-28T19:43:54.444Z,41.60
2018-11-28T19:46:24.073Z,38.63
2018-11-28T19:48:54.103Z,43.40
2018-11-28T19:51:23.853Z,34.78
2018-11-28T19:53:53.445Z,35.40
2018-11-28T19:56:23.043Z,34.80
2018-11-28T19:58:52.656Z,35.68
2018-11-28T20:01:22.521Z,37.42
2018-11-28T20:04:10.615Z,36.93
2018-11-28T20:06:40.902Z,34.75
2018-11-28T20:09:17.053Z,36.27
2018-11-28T20:11:46.822Z,30.40
2018-11-28T20:14:15.860Z,43.20
2018-11-28T20:16:46.495Z,37.93
2018-11-28T20:19:17.643Z,37.77
2018-11-28T20:21:46.241Z,30.43
2018-11-28T20:24:15.849Z,36.85
2018-11-28T20:26:45.530Z,40.17
2018-11-28T20:29:15.151Z,40.10
2018-11-28T20:31:44.499Z,34.27
2018-11-28T20:34:14.428Z,37.08
2018-11-28T20:36:45.932Z,38.10
2018-11-28T20:39:15.239Z,39.27
2018-11-28T20:41:44.998Z,37.28
2018-11-28T20:44:14.439Z,33.60
2018-11-28T20:46:43.868Z,33.37
2018-11-28T20:49:13.254Z,29.43
2018-11-28T20:51:46.021Z,36.07
2018-11-28T20:54:17.450Z,37.30
2018-11-28T20:56:46.782Z,33.33
2018-11-28T20:59:17.098Z,33.87
2018-11-28T21:01:46.409Z,35.77
2018-11-28T21:04:16.742Z,41.80
2018-11-28T21:06:46.338Z,32.97
2018-11-28T21:09:15.954Z,36.40
2018-11-28T21:11:46.218Z,42.75
2018-11-28T21:14:16.051Z,41.98
2018-11-28T21:16:45.667Z,45.23
2018-11-28T21:19:15.042Z,40.20
2018-11-28T21:21:44.961Z,39.50
2018-11-28T21:24:14.229Z,41.80
2018-11-28T21:26:43.808Z,44.75
2018-11-28T21:29:13.401Z,36.00
2018-11-28T21:31:42.714Z,36.37
2018-11-28T21:34:12.558Z,38.95
2018-11-28T21:36:41.853Z,39.80
2018-11-28T21:39:11.136Z,34.83
2018-11-28T21:41:40.472Z,38.40
2018-11-28T21:44:09.797Z,33.60
2018-11-28T21:46:39.113Z,37.70
2018-11-28T21:49:08.419Z,36.80
2018-11-28T21:51:38.286Z,35.93
2018-11-28T21:54:07.948Z,31.57
2018-11-28T21:56:39.096Z,37.73
2018-11-28T21:59:08.442Z,35.20
2018-11-28T22:01:37.473Z,33.37
2018-11-28T22:04:07.149Z,34.20
2018-11-28T22:06:36.474Z,33.10
2018-11-28T22:09:08.658Z,33.57
2018-11-28T22:11:38.213Z,36.00
2018-11-28T22:14:07.517Z,30.10
2018-11-28T22:16:37.011Z,35.13
2018-11-28T22:19:06.629Z,33.10
2018-11-28T22:21:36.008Z,34.67
2018-11-28T22:24:05.752Z,27.73
2018-11-28T22:26:35.242Z,32.70
2018-11-28T22:29:05.018Z,35.23
2018-11-28T22:31:34.412Z,30.50
2018-11-28T22:34:03.704Z,34.17
2018-11-28T22:36:33.023Z,34.00
2018-11-28T22:39:02.575Z,27.70
2018-11-28T22:41:31.604Z,32.87
2018-11-28T22:44:00.929Z,32.17
2018-11-28T22:46:30.465Z,29.72
2018-11-28T22:49:00.998Z,33.77
2018-11-28T22:51:30.368Z,33.93
2018-11-28T22:54:00.222Z,31.80
2018-11-28T22:56:29.862Z,37.90
2018-11-28T22:58:59.794Z,28.50
2018-11-28T23:01:43.203Z,31.57
2018-11-28T23:04:12.519Z,28.20
2018-11-28T23:06:42.382Z,32.28
2018-11-28T23:09:12.068Z,30.17
2018-11-28T23:11:41.682Z,27.93
2018-11-28T23:14:11.857Z,31.70
2018-11-28T23:16:41.400Z,29.27
2018-11-28T23:19:10.852Z,31.23
2018-11-28T23:21:40.645Z,28.80
2018-11-28T23:24:09.939Z,31.83
2018-11-28T23:26:39.557Z,29.90
2018-11-28T23:29:09.142Z,32.80
2018-11-28T23:31:38.414Z,29.90
2018-11-28T23:34:07.715Z,31.87
2018-11-28T23:36:37.243Z,34.27
2018-11-28T23:39:07.091Z,30.93
2018-11-28T23:41:36.661Z,30.23
2018-11-28T23:44:06.264Z,30.87
2018-11-28T23:46:35.569Z,32.67
2018-11-28T23:49:05.474Z,26.30
2018-11-28T23:51:35.027Z,31.87
2018-11-28T23:54:05.098Z,29.52
2018-11-28T23:56:34.849Z,30.40
2018-11-28T23:59:05.131Z,31.07
